sensor_id;sensor_type;location;lat;lon;timestamp;noise_LAeq;noise_LA_min;noise_LA_max;noise_LA01;noise_LA95
71030;Laerm;63723;51.436;5.976;2023-04-24T00:00:02;56.48;50.51;67.69;;
71030;Laerm;63723;51.436;5.976;2023-04-24T00:00:15;53.37;49.49;68.24;;
71030;Laerm;63723;51.436;5.976;2023-04-24T00:00:29;53.57;49.47;68.08;;
71030;Laerm;63723;51.436;5.976;2023-04-24T00:00:40;57.95;51.16;69.47;;
71030;Laerm;63723;51.436;5.976;2023-04-24T00:00:50;55.51;51.32;68.49;;
71030;Laerm;63723;51.436;5.976;2023-04-24T00:01:02;56.44;51.61;68.23;;
71030;Laerm;63723;51.436;5.976;2023-04-24T00:01:12;61.99;54.07;70.86;;
71030;Laerm;63723;51.436;5.976;2023-04-24T00:01:23;58.19;54.18;68.66;;
71030;Laerm;63723;51.436;5.976;2023-04-24T00:01:33;58.76;53.80;67.74;;
71030;Laerm;63723;51.436;5.976;2023-04-24T00:01:44;56.45;53.86;68.04;;
71030;Laerm;63723;51.436;5.976;2023-04-24T00:01:54;59.50;53.27;68.56;;
71030;Laerm;63723;51.436;5.976;2023-04-24T00:02:05;59.47;53.13;70.11;;
71030;Laerm;63723;51.436;5.976;2023-04-24T00:02:16;59.39;52.77;69.06;;
71030;Laerm;63723;51.436;5.976;2023-04-24T00:02:27;57.18;52.16;68.11;;
71030;Laerm;63723;51.436;5.976;2023-04-24T00:02:37;57.11;52.20;69.76;;
71030;Laerm;63723;51.436;5.976;2023-04-24T00:02:48;60.23;51.73;70.67;;
71030;Laerm;63723;51.436;5.976;2023-04-24T00:02:58;56.38;51.52;69.11;;
71030;Laerm;63723;51.436;5.976;2023-04-24T00:03:09;57.85;53.52;68.35;;
71030;Laerm;63723;51.436;5.976;2023-04-24T00:03:19;55.95;53.56;64.35;;
71030;Laerm;63723;51.436;5.976;2023-04-24T00:03:31;57.21;52.11;68.84;;
71030;Laerm;63723;51.436;5.976;2023-04-24T00:03:42;55.96;52.60;68.69;;
71030;Laerm;63723;51.436;5.976;2023-04-24T00:03:53;58.08;53.24;69.43;;
71030;Laerm;63723;51.436;5.976;2023-04-24T00:04:03;55.11;51.93;58.69;;
71030;Laerm;63723;51.436;5.976;2023-04-24T00:04:13;58.88;52.63;69.11;;
71030;Laerm;63723;51.436;5.976;2023-04-24T00:04:26;54.96;52.36;63.35;;
71030;Laerm;63723;51.436;5.976;2023-04-24T00:04:37;57.66;52.24;68.70;;
71030;Laerm;63723;51.436;5.976;2023-04-24T00:04:50;55.34;51.54;67.95;;
71030;Laerm;63723;51.436;5.976;2023-04-24T00:05:01;53.88;51.43;68.15;;
71030;Laerm;63723;51.436;5.976;2023-04-24T00:05:15;59.13;51.56;69.71;;
71030;Laerm;63723;51.436;5.976;2023-04-24T00:05:25;57.62;52.25;69.39;;
71030;Laerm;63723;51.436;5.976;2023-04-24T00:05:36;57.63;52.49;69.01;;
71030;Laerm;63723;51.436;5.976;2023-04-24T00:05:46;60.95;52.66;71.90;;
71030;Laerm;63723;51.436;5.976;2023-04-24T00:05:57;54.16;52.43;56.60;;
71030;Laerm;63723;51.436;5.976;2023-04-24T00:06:09;54.59;51.71;63.07;;
71030;Laerm;63723;51.436;5.976;2023-04-24T00:06:19;54.06;51.27;67.37;;
71030;Laerm;63723;51.436;5.976;2023-04-24T00:06:29;54.90;51.29;68.13;;
71030;Laerm;63723;51.436;5.976;2023-04-24T00:06:43;57.30;50.54;66.93;;
71030;Laerm;63723;51.436;5.976;2023-04-24T00:06:53;54.41;51.34;66.78;;
71030;Laerm;63723;51.436;5.976;2023-04-24T00:07:10;56.49;51.46;70.37;;
71030;Laerm;63723;51.436;5.976;2023-04-24T00:07:21;55.09;52.10;68.12;;
71030;Laerm;63723;51.436;5.976;2023-04-24T00:07:31;55.64;50.46;67.96;;
71030;Laerm;63723;51.436;5.976;2023-04-24T00:07:41;57.19;50.44;70.28;;
71030;Laerm;63723;51.436;5.976;2023-04-24T00:07:52;53.38;51.82;62.21;;
71030;Laerm;63723;51.436;5.976;2023-04-24T00:08:02;54.63;51.65;66.75;;
71030;Laerm;63723;51.436;5.976;2023-04-24T00:08:13;55.27;51.73;65.93;;
71030;Laerm;63723;51.436;5.976;2023-04-24T00:08:23;53.45;50.84;65.59;;
71030;Laerm;63723;51.436;5.976;2023-04-24T00:08:34;60.81;51.84;69.72;;
71030;Laerm;63723;51.436;5.976;2023-04-24T00:08:45;55.95;51.17;65.87;;
71030;Laerm;63723;51.436;5.976;2023-04-24T00:08:56;56.86;49.89;68.63;;
71030;Laerm;63723;51.436;5.976;2023-04-24T00:09:06;54.01;50.47;68.43;;
71030;Laerm;63723;51.436;5.976;2023-04-24T00:09:16;58.18;51.21;68.61;;
71030;Laerm;63723;51.436;5.976;2023-04-24T00:09:27;53.50;52.12;56.08;;
71030;Laerm;63723;51.436;5.976;2023-04-24T00:09:37;54.96;50.88;68.91;;
71030;Laerm;63723;51.436;5.976;2023-04-24T00:09:47;58.75;50.58;67.46;;
71030;Laerm;63723;51.436;5.976;2023-04-24T00:09:57;58.62;51.39;68.31;;
71030;Laerm;63723;51.436;5.976;2023-04-24T00:10:08;56.37;51.36;68.43;;
71030;Laerm;63723;51.436;5.976;2023-04-24T00:10:19;59.26;51.25;70.61;;
71030;Laerm;63723;51.436;5.976;2023-04-24T00:10:29;59.24;51.66;69.30;;
71030;Laerm;63723;51.436;5.976;2023-04-24T00:10:40;58.74;51.94;68.63;;
71030;Laerm;63723;51.436;5.976;2023-04-24T00:10:51;56.31;51.95;65.01;;
71030;Laerm;63723;51.436;5.976;2023-04-24T00:11:02;55.18;51.84;68.26;;
71030;Laerm;63723;51.436;5.976;2023-04-24T00:11:13;58.04;51.62;71.05;;
71030;Laerm;63723;51.436;5.976;2023-04-24T00:11:23;57.59;52.45;69.61;;
71030;Laerm;63723;51.436;5.976;2023-04-24T00:11:34;59.63;52.15;68.26;;
71030;Laerm;63723;51.436;5.976;2023-04-24T00:11:44;53.52;51.25;57.57;;
71030;Laerm;63723;51.436;5.976;2023-04-24T00:11:54;58.65;51.50;68.58;;
71030;Laerm;63723;51.436;5.976;2023-04-24T00:12:06;54.10;51.23;57.47;;
71030;Laerm;63723;51.436;5.976;2023-04-24T00:12:16;58.45;51.78;68.42;;
71030;Laerm;63723;51.436;5.976;2023-04-24T00:12:26;55.73;50.76;68.89;;
71030;Laerm;63723;51.436;5.976;2023-04-24T00:12:37;56.38;50.36;67.12;;
71030;Laerm;63723;51.436;5.976;2023-04-24T00:12:47;56.65;52.23;70.01;;
71030;Laerm;63723;51.436;5.976;2023-04-24T00:12:57;61.17;50.22;72.08;;
71030;Laerm;63723;51.436;5.976;2023-04-24T00:13:08;54.90;51.42;68.50;;
71030;Laerm;63723;51.436;5.976;2023-04-24T00:13:18;58.12;51.23;68.67;;
71030;Laerm;63723;51.436;5.976;2023-04-24T00:13:28;58.63;51.91;68.47;;
71030;Laerm;63723;51.436;5.976;2023-04-24T00:13:39;54.08;51.64;65.17;;
71030;Laerm;63723;51.436;5.976;2023-04-24T00:13:49;53.63;51.77;66.48;;
71030;Laerm;63723;51.436;5.976;2023-04-24T00:14:00;55.61;51.17;68.88;;
71030;Laerm;63723;51.436;5.976;2023-04-24T00:14:10;54.09;51.00;66.02;;
71030;Laerm;63723;51.436;5.976;2023-04-24T00:14:20;57.63;51.02;68.33;;
71030;Laerm;63723;51.436;5.976;2023-04-24T00:14:31;58.64;50.93;68.76;;
71030;Laerm;63723;51.436;5.976;2023-04-24T00:14:41;58.04;51.10;68.20;;
71030;Laerm;63723;51.436;5.976;2023-04-24T00:14:52;53.67;51.73;58.56;;
71030;Laerm;63723;51.436;5.976;2023-04-24T00:15:02;55.97;50.73;67.21;;
71030;Laerm;63723;51.436;5.976;2023-04-24T00:15:13;58.68;50.77;68.20;;
71030;Laerm;63723;51.436;5.976;2023-04-24T00:15:23;53.36;51.58;57.43;;
71030;Laerm;63723;51.436;5.976;2023-04-24T00:15:33;55.38;51.54;58.42;;
71030;Laerm;63723;51.436;5.976;2023-04-24T00:15:44;53.10;51.14;57.72;;
71030;Laerm;63723;51.436;5.976;2023-04-24T00:15:55;59.14;51.17;68.56;;
71030;Laerm;63723;51.436;5.976;2023-04-24T00:16:05;60.37;50.99;68.96;;
71030;Laerm;63723;51.436;5.976;2023-04-24T00:16:19;57.37;50.84;68.56;;
71030;Laerm;63723;51.436;5.976;2023-04-24T00:16:29;57.09;50.78;68.34;;
71030;Laerm;63723;51.436;5.976;2023-04-24T00:16:39;52.83;51.23;57.44;;
71030;Laerm;63723;51.436;5.976;2023-04-24T00:16:50;56.33;51.04;68.55;;
71030;Laerm;63723;51.436;5.976;2023-04-24T00:17:00;55.82;51.01;68.32;;
71030;Laerm;63723;51.436;5.976;2023-04-24T00:17:12;54.25;50.94;64.65;;
71030;Laerm;63723;51.436;5.976;2023-04-24T00:17:22;60.20;49.94;68.08;;
71030;Laerm;63723;51.436;5.976;2023-04-24T00:17:33;55.43;50.61;67.72;;
71030;Laerm;63723;51.436;5.976;2023-04-24T00:17:43;56.40;50.87;60.77;;
71030;Laerm;63723;51.436;5.976;2023-04-24T00:17:53;53.58;50.02;67.69;;
71030;Laerm;63723;51.436;5.976;2023-04-24T00:18:03;53.29;50.09;63.90;;
71030;Laerm;63723;51.436;5.976;2023-04-24T00:18:14;56.67;50.30;68.54;;
71030;Laerm;63723;51.436;5.976;2023-04-24T00:18:24;58.42;50.01;68.24;;
71030;Laerm;63723;51.436;5.976;2023-04-24T00:18:35;59.38;51.36;68.50;;
71030;Laerm;63723;51.436;5.976;2023-04-24T00:18:45;54.81;51.94;57.89;;
71030;Laerm;63723;51.436;5.976;2023-04-24T00:18:57;53.68;50.43;66.50;;
71030;Laerm;63723;51.436;5.976;2023-04-24T00:19:08;57.65;50.14;67.01;;
71030;Laerm;63723;51.436;5.976;2023-04-24T00:19:18;57.90;50.74;67.47;;
71030;Laerm;63723;51.436;5.976;2023-04-24T00:19:31;56.97;50.55;66.98;;
71030;Laerm;63723;51.436;5.976;2023-04-24T00:19:41;58.41;50.96;63.70;;
71030;Laerm;63723;51.436;5.976;2023-04-24T00:19:52;58.91;51.53;69.05;;
71030;Laerm;63723;51.436;5.976;2023-04-24T00:20:08;58.68;51.06;67.97;;
71030;Laerm;63723;51.436;5.976;2023-04-24T00:20:20;58.12;51.75;68.30;;
71030;Laerm;63723;51.436;5.976;2023-04-24T00:20:31;57.50;51.33;62.31;;
71030;Laerm;63723;51.436;5.976;2023-04-24T00:20:45;57.66;51.02;68.14;;
71030;Laerm;63723;51.436;5.976;2023-04-24T00:20:56;60.59;51.43;68.02;;
71030;Laerm;63723;51.436;5.976;2023-04-24T00:21:07;60.26;51.54;69.24;;
71030;Laerm;63723;51.436;5.976;2023-04-24T00:21:17;57.45;52.56;62.77;;
71030;Laerm;63723;51.436;5.976;2023-04-24T00:21:27;58.12;51.31;68.36;;
71030;Laerm;63723;51.436;5.976;2023-04-24T00:21:38;59.58;50.82;67.52;;
71030;Laerm;63723;51.436;5.976;2023-04-24T00:21:48;59.46;50.82;63.87;;
71030;Laerm;63723;51.436;5.976;2023-04-24T00:22:01;60.08;51.32;67.39;;
71030;Laerm;63723;51.436;5.976;2023-04-24T00:22:12;59.26;52.15;63.62;;
71030;Laerm;63723;51.436;5.976;2023-04-24T00:22:26;57.81;52.02;62.79;;
71030;Laerm;63723;51.436;5.976;2023-04-24T00:22:36;61.57;51.22;68.40;;
71030;Laerm;63723;51.436;5.976;2023-04-24T00:22:46;62.14;51.14;69.25;;
71030;Laerm;63723;51.436;5.976;2023-04-24T00:22:57;59.24;51.22;66.04;;
71030;Laerm;63723;51.436;5.976;2023-04-24T00:23:07;63.61;51.16;69.70;;
71030;Laerm;63723;51.436;5.976;2023-04-24T00:23:18;60.89;51.38;68.77;;
71030;Laerm;63723;51.436;5.976;2023-04-24T00:23:28;58.29;52.22;62.93;;
71030;Laerm;63723;51.436;5.976;2023-04-24T00:23:38;58.04;51.52;62.42;;
71030;Laerm;63723;51.436;5.976;2023-04-24T00:23:48;58.12;52.04;62.44;;
71030;Laerm;63723;51.436;5.976;2023-04-24T00:23:59;58.73;51.70;62.81;;
71030;Laerm;63723;51.436;5.976;2023-04-24T00:24:09;58.70;51.99;62.93;;
71030;Laerm;63723;51.436;5.976;2023-04-24T00:24:20;60.30;51.61;69.06;;
71030;Laerm;63723;51.436;5.976;2023-04-24T00:24:31;61.73;50.97;69.77;;
71030;Laerm;63723;51.436;5.976;2023-04-24T00:24:41;60.82;51.00;68.62;;
71030;Laerm;63723;51.436;5.976;2023-04-24T00:24:51;59.84;51.36;69.43;;
71030;Laerm;63723;51.436;5.976;2023-04-24T00:25:01;59.05;51.63;66.79;;
71030;Laerm;63723;51.436;5.976;2023-04-24T00:25:12;59.28;50.97;67.14;;
71030;Laerm;63723;51.436;5.976;2023-04-24T00:25:22;58.41;51.03;66.72;;
71030;Laerm;63723;51.436;5.976;2023-04-24T00:25:32;60.88;51.05;69.07;;
71030;Laerm;63723;51.436;5.976;2023-04-24T00:25:43;58.59;51.22;63.08;;
71030;Laerm;63723;51.436;5.976;2023-04-24T00:25:53;58.53;51.87;63.35;;
71030;Laerm;63723;51.436;5.976;2023-04-24T00:26:03;60.96;52.14;69.03;;
71030;Laerm;63723;51.436;5.976;2023-04-24T00:26:13;58.16;51.59;62.77;;
71030;Laerm;63723;51.436;5.976;2023-04-24T00:26:24;59.08;51.44;66.92;;
71030;Laerm;63723;51.436;5.976;2023-04-24T00:26:34;60.74;51.36;68.77;;
71030;Laerm;63723;51.436;5.976;2023-04-24T00:26:44;59.04;51.68;68.66;;
71030;Laerm;63723;51.436;5.976;2023-04-24T00:26:55;59.13;51.79;68.68;;
71030;Laerm;63723;51.436;5.976;2023-04-24T00:27:05;60.36;51.44;70.16;;
71030;Laerm;63723;51.436;5.976;2023-04-24T00:27:15;59.96;51.73;69.31;;
71030;Laerm;63723;51.436;5.976;2023-04-24T00:27:25;59.55;51.53;69.16;;
71030;Laerm;63723;51.436;5.976;2023-04-24T00:27:36;58.77;51.31;67.93;;
71030;Laerm;63723;51.436;5.976;2023-04-24T00:27:49;59.46;52.15;70.41;;
71030;Laerm;63723;51.436;5.976;2023-04-24T00:28:00;59.38;52.22;68.88;;
71030;Laerm;63723;51.436;5.976;2023-04-24T00:28:10;57.99;53.31;62.35;;
71030;Laerm;63723;51.436;5.976;2023-04-24T00:28:20;58.07;52.70;62.31;;
71030;Laerm;63723;51.436;5.976;2023-04-24T00:28:31;58.49;51.49;69.10;;
71030;Laerm;63723;51.436;5.976;2023-04-24T00:28:41;60.05;51.48;69.29;;
71030;Laerm;63723;51.436;5.976;2023-04-24T00:28:51;57.63;52.17;64.58;;
71030;Laerm;63723;51.436;5.976;2023-04-24T00:29:02;58.16;51.91;68.78;;
71030;Laerm;63723;51.436;5.976;2023-04-24T00:29:12;57.86;51.53;67.26;;
71030;Laerm;63723;51.436;5.976;2023-04-24T00:29:22;57.56;52.21;69.00;;
71030;Laerm;63723;51.436;5.976;2023-04-24T00:29:33;59.18;51.68;68.42;;
71030;Laerm;63723;51.436;5.976;2023-04-24T00:29:43;60.11;51.70;69.10;;
71030;Laerm;63723;51.436;5.976;2023-04-24T00:29:53;58.61;51.30;68.82;;
71030;Laerm;63723;51.436;5.976;2023-04-24T00:30:04;60.67;50.92;69.00;;
71030;Laerm;63723;51.436;5.976;2023-04-24T00:30:14;57.89;51.15;69.07;;
71030;Laerm;63723;51.436;5.976;2023-04-24T00:30:25;57.10;51.37;68.87;;
71030;Laerm;63723;51.436;5.976;2023-04-24T00:30:35;57.39;51.30;61.32;;
71030;Laerm;63723;51.436;5.976;2023-04-24T00:30:46;59.09;50.78;68.80;;
71030;Laerm;63723;51.436;5.976;2023-04-24T00:30:56;57.11;50.53;66.59;;
71030;Laerm;63723;51.436;5.976;2023-04-24T00:31:06;57.71;51.02;68.24;;
71030;Laerm;63723;51.436;5.976;2023-04-24T00:31:18;57.35;52.45;61.35;;
71030;Laerm;63723;51.436;5.976;2023-04-24T00:31:29;57.34;51.32;68.87;;
71030;Laerm;63723;51.436;5.976;2023-04-24T00:31:39;58.40;51.18;68.71;;
71030;Laerm;63723;51.436;5.976;2023-04-24T00:31:49;56.61;51.38;61.41;;
71030;Laerm;63723;51.436;5.976;2023-04-24T00:32:00;57.32;51.12;66.85;;
71030;Laerm;63723;51.436;5.976;2023-04-24T00:32:11;56.21;51.07;68.58;;
71030;Laerm;63723;51.436;5.976;2023-04-24T00:32:22;57.61;51.09;67.63;;
71030;Laerm;63723;51.436;5.976;2023-04-24T00:32:32;56.37;51.39;66.98;;
71030;Laerm;63723;51.436;5.976;2023-04-24T00:32:43;58.60;51.57;68.36;;
71030;Laerm;63723;51.436;5.976;2023-04-24T00:32:53;56.86;51.90;67.05;;
71030;Laerm;63723;51.436;5.976;2023-04-24T00:33:03;57.03;51.46;68.50;;
71030;Laerm;63723;51.436;5.976;2023-04-24T00:33:13;56.09;51.63;66.76;;
71030;Laerm;63723;51.436;5.976;2023-04-24T00:33:24;57.26;51.46;68.69;;
71030;Laerm;63723;51.436;5.976;2023-04-24T00:33:35;59.11;52.02;67.95;;
71030;Laerm;63723;51.436;5.976;2023-04-24T00:33:45;58.99;52.20;68.64;;
71030;Laerm;63723;51.436;5.976;2023-04-24T00:33:55;61.33;53.30;68.35;;
71030;Laerm;63723;51.436;5.976;2023-04-24T00:34:05;57.94;52.01;68.35;;
71030;Laerm;63723;51.436;5.976;2023-04-24T00:34:16;57.88;51.36;68.99;;
71030;Laerm;63723;51.436;5.976;2023-04-24T00:34:26;59.46;50.71;70.83;;
71030;Laerm;63723;51.436;5.976;2023-04-24T00:34:37;56.48;50.73;67.99;;
71030;Laerm;63723;51.436;5.976;2023-04-24T00:34:47;58.88;51.22;68.95;;
71030;Laerm;63723;51.436;5.976;2023-04-24T00:34:57;60.47;51.55;69.53;;
71030;Laerm;63723;51.436;5.976;2023-04-24T00:35:08;56.97;51.31;68.83;;
71030;Laerm;63723;51.436;5.976;2023-04-24T00:35:18;58.98;51.16;69.02;;
71030;Laerm;63723;51.436;5.976;2023-04-24T00:35:29;61.24;51.38;69.18;;
71030;Laerm;63723;51.436;5.976;2023-04-24T00:35:42;57.14;51.43;68.28;;
71030;Laerm;63723;51.436;5.976;2023-04-24T00:35:53;58.35;51.57;69.16;;
71030;Laerm;63723;51.436;5.976;2023-04-24T00:36:05;55.53;51.32;59.52;;
71030;Laerm;63723;51.436;5.976;2023-04-24T00:36:15;56.70;50.96;69.19;;
71030;Laerm;63723;51.436;5.976;2023-04-24T00:36:26;57.77;51.66;67.93;;
71030;Laerm;63723;51.436;5.976;2023-04-24T00:36:37;55.87;51.12;68.94;;
71030;Laerm;63723;51.436;5.976;2023-04-24T00:36:47;57.85;51.38;69.31;;
71030;Laerm;63723;51.436;5.976;2023-04-24T00:37:00;55.97;50.97;68.68;;
71030;Laerm;63723;51.436;5.976;2023-04-24T00:37:10;56.67;51.08;67.50;;
71030;Laerm;63723;51.436;5.976;2023-04-24T00:37:21;55.43;51.19;61.39;;
71030;Laerm;63723;51.436;5.976;2023-04-24T00:37:31;58.65;51.44;66.80;;
71030;Laerm;63723;51.436;5.976;2023-04-24T00:37:42;59.60;51.40;68.30;;
71030;Laerm;63723;51.436;5.976;2023-04-24T00:37:52;54.78;52.29;59.97;;
71030;Laerm;63723;51.436;5.976;2023-04-24T00:38:02;55.24;52.00;68.61;;
71030;Laerm;63723;51.436;5.976;2023-04-24T00:38:12;55.62;52.44;59.84;;
71030;Laerm;63723;51.436;5.976;2023-04-24T00:38:22;56.66;51.64;68.59;;
71030;Laerm;63723;51.436;5.976;2023-04-24T00:38:33;58.34;51.61;68.16;;
71030;Laerm;63723;51.436;5.976;2023-04-24T00:38:43;56.53;51.44;69.58;;
71030;Laerm;63723;51.436;5.976;2023-04-24T00:38:54;57.14;50.98;69.00;;
71030;Laerm;63723;51.436;5.976;2023-04-24T00:39:04;56.42;50.55;67.28;;
71030;Laerm;63723;51.436;5.976;2023-04-24T00:39:14;58.02;51.87;68.81;;
71030;Laerm;63723;51.436;5.976;2023-04-24T00:39:25;57.92;51.96;65.80;;
71030;Laerm;63723;51.436;5.976;2023-04-24T00:39:35;56.78;51.45;68.36;;
71030;Laerm;63723;51.436;5.976;2023-04-24T00:39:46;56.06;50.39;68.76;;
71030;Laerm;63723;51.436;5.976;2023-04-24T00:39:56;55.76;50.12;68.13;;
71030;Laerm;63723;51.436;5.976;2023-04-24T00:40:07;56.78;50.61;68.18;;
71030;Laerm;63723;51.436;5.976;2023-04-24T00:40:17;56.23;50.39;66.69;;
71030;Laerm;63723;51.436;5.976;2023-04-24T00:40:28;58.58;50.28;67.09;;
71030;Laerm;63723;51.436;5.976;2023-04-24T00:40:38;55.27;50.45;65.78;;
71030;Laerm;63723;51.436;5.976;2023-04-24T00:40:48;57.42;50.37;68.73;;
71030;Laerm;63723;51.436;5.976;2023-04-24T00:41:03;58.12;51.13;67.47;;
71030;Laerm;63723;51.436;5.976;2023-04-24T00:41:13;56.09;50.07;65.40;;
71030;Laerm;63723;51.436;5.976;2023-04-24T00:41:26;56.56;50.41;67.30;;
71030;Laerm;63723;51.436;5.976;2023-04-24T00:41:36;55.89;50.35;65.39;;
71030;Laerm;63723;51.436;5.976;2023-04-24T00:41:47;54.35;50.39;66.36;;
71030;Laerm;63723;51.436;5.976;2023-04-24T00:41:58;58.50;50.60;67.58;;
71030;Laerm;63723;51.436;5.976;2023-04-24T00:42:09;55.90;50.58;65.96;;
71030;Laerm;63723;51.436;5.976;2023-04-24T00:42:19;58.35;50.41;67.13;;
71030;Laerm;63723;51.436;5.976;2023-04-24T00:42:30;54.49;50.48;68.76;;
71030;Laerm;63723;51.436;5.976;2023-04-24T00:42:40;56.71;50.72;68.48;;
71030;Laerm;63723;51.436;5.976;2023-04-24T00:42:51;58.60;50.85;67.34;;
71030;Laerm;63723;51.436;5.976;2023-04-24T00:43:01;60.41;50.61;68.30;;
71030;Laerm;63723;51.436;5.976;2023-04-24T00:43:11;56.12;50.66;68.58;;
71030;Laerm;63723;51.436;5.976;2023-04-24T00:43:22;56.75;50.53;67.52;;
71030;Laerm;63723;51.436;5.976;2023-04-24T00:43:32;56.28;50.54;67.97;;
71030;Laerm;63723;51.436;5.976;2023-04-24T00:43:42;53.98;51.04;58.35;;
71030;Laerm;63723;51.436;5.976;2023-04-24T00:43:53;52.86;51.27;57.64;;
71030;Laerm;63723;51.436;5.976;2023-04-24T00:44:03;53.62;51.29;58.55;;
71030;Laerm;63723;51.436;5.976;2023-04-24T00:44:14;52.50;50.80;57.93;;
71030;Laerm;63723;51.436;5.976;2023-04-24T00:44:27;53.09;51.09;58.12;;
71030;Laerm;63723;51.436;5.976;2023-04-24T00:44:37;53.36;50.69;57.84;;
71030;Laerm;63723;51.436;5.976;2023-04-24T00:44:48;56.12;51.13;67.94;;
71030;Laerm;63723;51.436;5.976;2023-04-24T00:44:58;52.64;50.72;67.62;;
71030;Laerm;63723;51.436;5.976;2023-04-24T00:45:09;55.80;50.59;68.25;;
71030;Laerm;63723;51.436;5.976;2023-04-24T00:45:20;56.95;51.26;67.35;;
71030;Laerm;63723;51.436;5.976;2023-04-24T00:45:30;53.98;50.66;58.14;;
71030;Laerm;63723;51.436;5.976;2023-04-24T00:45:41;53.46;50.73;64.85;;
71030;Laerm;63723;51.436;5.976;2023-04-24T00:45:51;59.03;50.95;67.97;;
71030;Laerm;63723;51.436;5.976;2023-04-24T00:46:02;53.79;51.04;58.61;;
71030;Laerm;63723;51.436;5.976;2023-04-24T00:46:12;52.70;50.60;58.06;;
71030;Laerm;63723;51.436;5.976;2023-04-24T00:46:22;54.49;51.35;58.83;;
71030;Laerm;63723;51.436;5.976;2023-04-24T00:46:32;52.36;50.83;56.69;;
71030;Laerm;63723;51.436;5.976;2023-04-24T00:46:43;61.27;50.91;68.59;;
71030;Laerm;63723;51.436;5.976;2023-04-24T00:46:53;57.21;50.88;67.78;;
71030;Laerm;63723;51.436;5.976;2023-04-24T00:47:04;55.20;51.10;68.74;;
71030;Laerm;63723;51.436;5.976;2023-04-24T00:47:15;56.97;50.97;68.33;;
71030;Laerm;63723;51.436;5.976;2023-04-24T00:47:25;53.59;51.14;63.75;;
71030;Laerm;63723;51.436;5.976;2023-04-24T00:47:36;57.69;50.66;68.49;;
71030;Laerm;63723;51.436;5.976;2023-04-24T00:47:46;52.68;50.98;53.92;;
71030;Laerm;63723;51.436;5.976;2023-04-24T00:47:56;52.94;51.39;54.79;;
71030;Laerm;63723;51.436;5.976;2023-04-24T00:48:07;58.01;51.01;69.81;;
71030;Laerm;63723;51.436;5.976;2023-04-24T00:48:17;54.46;50.63;68.04;;
71030;Laerm;63723;51.436;5.976;2023-04-24T00:48:28;56.69;50.41;68.13;;
71030;Laerm;63723;51.436;5.976;2023-04-24T00:48:39;57.11;50.39;66.58;;
71030;Laerm;63723;51.436;5.976;2023-04-24T00:48:50;54.80;51.11;60.82;;
71030;Laerm;63723;51.436;5.976;2023-04-24T00:49:00;58.74;50.72;69.21;;
71030;Laerm;63723;51.436;5.976;2023-04-24T00:49:13;58.22;51.26;67.08;;
71030;Laerm;63723;51.436;5.976;2023-04-24T00:49:24;58.63;50.52;68.01;;
71030;Laerm;63723;51.436;5.976;2023-04-24T00:49:34;52.72;51.66;55.52;;
71030;Laerm;63723;51.436;5.976;2023-04-24T00:49:44;54.54;51.26;58.16;;
71030;Laerm;63723;51.436;5.976;2023-04-24T00:49:55;54.80;50.98;68.00;;
71030;Laerm;63723;51.436;5.976;2023-04-24T00:50:05;57.74;50.53;68.74;;
71030;Laerm;63723;51.436;5.976;2023-04-24T00:50:16;54.55;50.54;66.71;;
71030;Laerm;63723;51.436;5.976;2023-04-24T00:50:26;59.68;50.63;69.39;;
71030;Laerm;63723;51.436;5.976;2023-04-24T00:50:37;55.50;50.90;67.72;;
71030;Laerm;63723;51.436;5.976;2023-04-24T00:50:48;53.99;50.65;62.26;;
71030;Laerm;63723;51.436;5.976;2023-04-24T00:50:58;53.27;50.50;68.44;;
71030;Laerm;63723;51.436;5.976;2023-04-24T00:51:08;59.79;50.33;68.69;;
71030;Laerm;63723;51.436;5.976;2023-04-24T00:51:19;52.65;50.59;65.49;;
71030;Laerm;63723;51.436;5.976;2023-04-24T00:51:29;56.69;50.63;68.58;;
71030;Laerm;63723;51.436;5.976;2023-04-24T00:51:40;54.87;50.28;68.22;;
71030;Laerm;63723;51.436;5.976;2023-04-24T00:51:55;60.44;50.76;69.18;;
71030;Laerm;63723;51.436;5.976;2023-04-24T00:52:09;56.66;50.90;68.62;;
71030;Laerm;63723;51.436;5.976;2023-04-24T00:52:20;54.26;51.26;58.37;;
71030;Laerm;63723;51.436;5.976;2023-04-24T00:52:34;55.57;51.03;58.19;;
71030;Laerm;63723;51.436;5.976;2023-04-24T00:52:44;52.12;50.95;56.48;;
71030;Laerm;63723;51.436;5.976;2023-04-24T00:52:54;54.66;50.55;68.71;;
71030;Laerm;63723;51.436;5.976;2023-04-24T00:53:05;57.44;50.12;68.59;;
71030;Laerm;63723;51.436;5.976;2023-04-24T00:53:15;60.30;50.01;68.63;;
71030;Laerm;63723;51.436;5.976;2023-04-24T00:53:26;59.08;50.61;67.94;;
71030;Laerm;63723;51.436;5.976;2023-04-24T00:53:36;58.34;51.00;68.74;;
71030;Laerm;63723;51.436;5.976;2023-04-24T00:53:47;52.23;50.88;55.14;;
71030;Laerm;63723;51.436;5.976;2023-04-24T00:53:57;52.07;50.80;55.62;;
71030;Laerm;63723;51.436;5.976;2023-04-24T00:54:07;57.53;50.57;68.72;;
71030;Laerm;63723;51.436;5.976;2023-04-24T00:54:21;59.29;50.46;69.44;;
71030;Laerm;63723;51.436;5.976;2023-04-24T00:54:31;57.47;50.48;68.12;;
71030;Laerm;63723;51.436;5.976;2023-04-24T00:54:41;58.51;50.27;68.84;;
71030;Laerm;63723;51.436;5.976;2023-04-24T00:54:51;57.70;50.20;69.52;;
71030;Laerm;63723;51.436;5.976;2023-04-24T00:55:02;55.54;50.23;68.30;;
71030;Laerm;63723;51.436;5.976;2023-04-24T00:55:12;60.19;51.08;68.67;;
71030;Laerm;63723;51.436;5.976;2023-04-24T00:55:24;59.20;51.40;67.89;;
71030;Laerm;63723;51.436;5.976;2023-04-24T00:55:35;52.86;51.51;55.51;;
71030;Laerm;63723;51.436;5.976;2023-04-24T00:55:47;56.75;51.17;67.99;;
71030;Laerm;63723;51.436;5.976;2023-04-24T00:55:57;52.54;51.31;54.88;;
71030;Laerm;63723;51.436;5.976;2023-04-24T00:56:08;53.49;51.40;68.50;;
71030;Laerm;63723;51.436;5.976;2023-04-24T00:56:18;58.63;50.60;68.37;;
71030;Laerm;63723;51.436;5.976;2023-04-24T00:56:28;53.56;51.15;58.46;;
71030;Laerm;63723;51.436;5.976;2023-04-24T00:56:39;56.84;50.31;64.69;;
71030;Laerm;63723;51.436;5.976;2023-04-24T00:56:50;55.43;50.22;65.92;;
71030;Laerm;63723;51.436;5.976;2023-04-24T00:57:02;53.65;50.45;66.66;;
71030;Laerm;63723;51.436;5.976;2023-04-24T00:57:13;56.66;50.57;69.23;;
71030;Laerm;63723;51.436;5.976;2023-04-24T00:57:25;57.27;50.89;68.05;;
71030;Laerm;63723;51.436;5.976;2023-04-24T00:57:37;56.34;50.43;67.65;;
71030;Laerm;63723;51.436;5.976;2023-04-24T00:57:48;55.17;50.57;67.93;;
71030;Laerm;63723;51.436;5.976;2023-04-24T00:57:58;57.27;50.94;67.87;;
71030;Laerm;63723;51.436;5.976;2023-04-24T00:58:09;59.12;50.47;67.53;;
71030;Laerm;63723;51.436;5.976;2023-04-24T00:58:19;58.14;51.13;69.27;;
71030;Laerm;63723;51.436;5.976;2023-04-24T00:58:30;57.93;50.72;68.02;;
71030;Laerm;63723;51.436;5.976;2023-04-24T00:58:41;58.71;50.85;68.90;;
71030;Laerm;63723;51.436;5.976;2023-04-24T00:58:52;56.26;50.64;69.66;;
71030;Laerm;63723;51.436;5.976;2023-04-24T00:59:03;56.54;50.87;68.16;;
71030;Laerm;63723;51.436;5.976;2023-04-24T00:59:15;56.33;50.42;69.08;;
71030;Laerm;63723;51.436;5.976;2023-04-24T00:59:26;56.96;50.32;70.36;;
71030;Laerm;63723;51.436;5.976;2023-04-24T00:59:36;58.20;50.20;67.19;;
71030;Laerm;63723;51.436;5.976;2023-04-24T00:59:47;51.85;50.10;63.68;;
71030;Laerm;63723;51.436;5.976;2023-04-24T00:59:57;51.85;50.48;56.39;;
71030;Laerm;63723;51.436;5.976;2023-04-24T01:00:08;51.81;50.50;54.11;;